Time;durP1;ratioP1;P1;durP2;ratioP2;P2;SDS_P1;SDS_P2;PMS_P1;PMS_P2;Temp;Humidity;BMP_temperature;BMP_pressure;BME280_temperature;BME280_humidity;BME280_pressure;Samples;Min_cycle;Max_cycle;Signal;HPM_P1;HPM_P2
2024/02/26 00:02:11;;;;;;;5.05;2.60;;;;;;;6.60;100.00;99741.75;5064379;28;20043;-68
2024/02/26 00:04:59;;;;;;;4.50;2.40;;;;;;;6.67;100.00;99744.22;5061885;28;20043;-67
2024/02/26 00:07:48;;;;;;;4.18;2.40;;;;;;;6.69;100.00;99743.94;5100299;28;20051;-67
2024/02/26 00:10:36;;;;;;;3.75;2.53;;;;;;;6.70;100.00;99749.06;5112035;27;20055;-67
2024/02/26 00:13:24;;;;;;;5.45;2.58;;;;;;;6.71;100.00;99742.59;5109308;28;20047;-67
2024/02/26 00:16:12;;;;;;;5.35;2.38;;;;;;;6.70;100.00;99740.97;5090900;28;20043;-67
2024/02/26 00:19:00;;;;;;;4.70;2.33;;;;;;;6.73;100.00;99748.53;5111667;28;20044;-67
2024/02/26 00:21:49;;;;;;;4.20;2.33;;;;;;;6.71;100.00;99748.00;5086682;28;20059;-67
2024/02/26 00:24:37;;;;;;;5.40;2.72;;;;;;;6.74;100.00;99746.66;5085621;28;20061;-67
2024/02/26 00:27:25;;;;;;;5.65;2.40;;;;;;;6.77;100.00;99752.34;5086247;28;20047;-66
2024/02/26 00:30:13;;;;;;;4.20;2.30;;;;;;;6.80;100.00;99759.09;5077133;27;20057;-67
2024/02/26 00:33:01;;;;;;;3.65;2.10;;;;;;;6.82;100.00;99756.94;5100184;28;20058;-67
2024/02/26 00:35:49;;;;;;;4.15;2.47;;;;;;;6.79;100.00;99761.00;5085178;28;20054;-67
2024/02/26 00:38:37;;;;;;;3.60;2.40;;;;;;;6.74;100.00;99761.00;5084498;28;20043;-67
2024/02/26 00:41:25;;;;;;;6.43;2.40;;;;;;;6.68;100.00;99764.78;5084560;28;20070;-67
2024/02/26 00:44:13;;;;;;;4.90;2.70;;;;;;;6.64;100.00;99752.03;5096789;28;20118;-67
2024/02/26 00:47:02;;;;;;;4.05;2.53;;;;;;;6.56;100.00;99750.69;5092527;28;20052;-66
2024/02/26 00:49:50;;;;;;;4.85;2.42;;;;;;;6.58;100.00;99743.09;5111458;28;20044;-67
2024/02/26 00:52:38;;;;;;;3.45;2.35;;;;;;;6.61;100.00;99739.84;5119305;28;20036;-66
2024/02/26 00:55:26;;;;;;;4.50;2.40;;;;;;;6.61;100.00;99746.09;5052071;28;20044;-67
2024/02/26 00:58:14;;;;;;;5.65;2.35;;;;;;;6.59;100.00;99740.16;5091988;28;20131;-67
2024/02/26 01:01:02;;;;;;;4.10;2.60;;;;;;;6.54;100.00;99744.72;5099310;28;20062;-67
2024/02/26 01:03:51;;;;;;;3.05;2.30;;;;;;;6.48;100.00;99749.31;5087346;28;20408;-67
2024/02/26 01:06:39;;;;;;;3.50;2.22;;;;;;;6.42;100.00;99741.44;5094646;28;20408;-67
2024/02/26 01:09:27;;;;;;;3.30;2.38;;;;;;;6.31;100.00;99727.09;5096096;28;20040;-67
2024/02/26 01:12:15;;;;;;;3.97;2.25;;;;;;;6.23;100.00;99731.13;5076471;28;20067;-67
2024/02/26 01:15:04;;;;;;;4.80;2.60;;;;;;;6.25;100.00;99739.78;5082839;28;20397;-67
2024/02/26 01:17:52;;;;;;;3.65;2.47;;;;;;;6.32;100.00;99761.97;5094058;28;20075;-67
2024/02/26 01:20:40;;;;;;;5.78;2.50;;;;;;;6.38;100.00;99777.16;5077339;28;20048;-67
2024/02/26 01:23:28;;;;;;;3.63;2.20;;;;;;;6.45;100.00;99768.00;5054715;28;20054;-68
2024/02/26 01:26:16;;;;;;;4.43;2.53;;;;;;;6.42;100.00;99774.72;5081319;28;20126;-67
2024/02/26 01:29:04;;;;;;;4.68;2.47;;;;;;;6.40;100.00;99775.00;5077071;28;20044;-67
2024/02/26 01:31:52;;;;;;;4.78;2.72;;;;;;;6.40;100.00;99774.19;5077073;28;20040;-67
2024/02/26 01:34:40;;;;;;;3.35;2.50;;;;;;;6.46;100.00;99777.72;5107827;28;20062;-67
2024/02/26 01:37:29;;;;;;;5.18;2.30;;;;;;;6.42;100.00;99765.78;5102909;28;20117;-67
2024/02/26 01:40:19;;;;;;;4.30;2.55;;;;;;;6.40;100.00;99774.19;5094138;28;20138;-67
2024/02/26 01:43:07;;;;;;;4.85;2.55;;;;;;;6.40;100.00;99779.59;5079742;28;20641;-67
2024/02/26 01:45:55;;;;;;;5.00;2.70;;;;;;;6.34;100.00;99777.94;5081016;28;20559;-67
2024/02/26 01:48:45;;;;;;;4.95;2.70;;;;;;;6.30;100.00;99766.88;5112273;28;20048;-67
2024/02/26 01:51:34;;;;;;;3.65;2.33;;;;;;;6.25;100.00;99771.41;5085219;28;20530;-67
2024/02/26 01:54:22;;;;;;;2.90;2.30;;;;;;;6.22;100.00;99783.59;5087108;28;20051;-68
2024/02/26 01:57:10;;;;;;;6.22;2.90;;;;;;;6.26;100.00;99790.09;5090551;28;20070;-69
2024/02/26 01:59:58;;;;;;;4.28;2.75;;;;;;;6.24;100.00;99791.44;5095411;28;20040;-67
2024/02/26 02:02:48;;;;;;;3.83;2.42;;;;;;;6.31;100.00;99797.44;5114314;28;20036;-66
2024/02/26 02:05:41;;;;;;;4.50;2.75;;;;;;;6.33;100.00;99795.28;5113822;27;20048;-67
2024/02/26 02:08:30;;;;;;;3.58;2.40;;;;;;;6.34;100.00;99795.00;5109298;27;20100;-66
2024/02/26 02:11:18;;;;;;;5.00;2.70;;;;;;;6.30;100.00;99796.63;5088996;27;20035;-61
2024/02/26 02:14:07;;;;;;;3.83;2.53;;;;;;;6.26;100.00;99789.28;5120382;28;20073;-62
2024/02/26 02:16:55;;;;;;;4.20;2.47;;;;;;;6.25;100.00;99791.16;5112608;28;20106;-67
2024/02/26 02:19:43;;;;;;;8.73;2.78;;;;;;;6.28;100.00;99798.78;5094655;28;20102;-67
2024/02/26 02:22:32;;;;;;;4.28;2.60;;;;;;;6.26;100.00;99794.72;5093903;28;20048;-66
2024/02/26 02:25:20;;;;;;;3.63;2.30;;;;;;;6.22;100.00;99805.22;5109129;28;20043;-68
2024/02/26 02:28:08;;;;;;;4.95;2.60;;;;;;;6.17;100.00;99794.38;5107521;27;20048;-68
2024/02/26 02:30:56;;;;;;;5.40;2.53;;;;;;;6.02;100.00;99778.91;5078005;28;20056;-68
2024/02/26 02:33:44;;;;;;;3.67;2.47;;;;;;;6.01;100.00;99784.56;5066468;28;20504;-67
2024/02/26 02:36:33;;;;;;;4.28;2.45;;;;;;;6.01;100.00;99787.28;5085812;27;20063;-66
2024/02/26 02:39:21;;;;;;;4.95;2.30;;;;;;;6.01;100.00;99782.69;5112946;27;20613;-66
2024/02/26 02:42:10;;;;;;;2.95;2.03;;;;;;;5.91;100.00;99782.59;5099554;28;20054;-67
2024/02/26 02:44:58;;;;;;;4.05;2.22;;;;;;;5.84;100.00;99782.84;5093632;28;20055;-67
2024/02/26 02:47:46;;;;;;;4.50;2.47;;;;;;;5.80;100.00;99784.47;5093785;28;20048;-67
2024/02/26 02:50:34;;;;;;;4.68;2.63;;;;;;;5.83;100.00;99786.63;5098822;28;20551;-67
2024/02/26 02:53:22;;;;;;;4.03;2.65;;;;;;;5.81;100.00;99796.06;5110250;28;20051;-67
2024/02/26 02:56:10;;;;;;;3.03;2.28;;;;;;;5.79;100.00;99800.94;5095139;28;20153;-67
2024/02/26 02:58:58;;;;;;;4.90;2.33;;;;;;;5.80;100.00;99803.38;5092508;28;20415;-67
2024/02/26 03:01:46;;;;;;;4.60;2.60;;;;;;;5.81;100.00;99802.28;5092605;28;20043;-67
2024/02/26 03:04:34;;;;;;;5.22;2.63;;;;;;;5.77;100.00;99803.88;5082473;28;20479;-67
2024/02/26 03:07:22;;;;;;;4.75;2.65;;;;;;;5.71;100.00;99799.53;5120462;27;20047;-67
2024/02/26 03:10:10;;;;;;;4.30;2.28;;;;;;;5.68;100.00;99800.88;5102063;27;20047;-67
2024/02/26 03:12:59;;;;;;;7.57;2.55;;;;;;;5.68;100.00;99800.06;5081264;28;20393;-66
2024/02/26 03:15:47;;;;;;;7.47;2.63;;;;;;;5.60;100.00;99803.22;5112466;27;20450;-67
2024/02/26 03:18:35;;;;;;;5.30;2.83;;;;;;;5.58;100.00;99798.09;5104816;27;20412;-67
2024/02/26 03:21:25;;;;;;;3.97;2.80;;;;;;;5.60;100.00;99800.53;5108909;27;20058;-67
2024/02/26 03:24:13;;;;;;;5.50;3.10;;;;;;;5.52;100.00;99796.44;5064157;28;20621;-67
2024/02/26 03:27:01;;;;;;;5.80;3.28;;;;;;;5.44;100.00;99795.03;5102654;28;20412;-67
2024/02/26 03:29:49;;;;;;;4.80;2.78;;;;;;;5.39;100.00;99799.56;5093422;28;20059;-67
2024/02/26 03:32:37;;;;;;;4.70;2.83;;;;;;;5.34;100.00;99798.47;5077302;28;20071;-67
2024/02/26 03:35:25;;;;;;;4.65;2.60;;;;;;;5.39;100.00;99792.31;5091723;28;20496;-67
2024/02/26 03:38:13;;;;;;;5.32;3.00;;;;;;;5.40;100.00;99799.31;5073131;28;20524;-68
2024/02/26 03:41:01;;;;;;;4.95;2.50;;;;;;;5.38;100.00;99790.66;5108180;28;20057;-67
2024/02/26 03:43:50;;;;;;;4.78;2.67;;;;;;;5.39;100.00;99786.91;5102620;28;20523;-66
2024/02/26 03:46:38;;;;;;;4.05;2.70;;;;;;;5.45;100.00;99796.66;5116898;28;20098;-67
2024/02/26 03:49:26;;;;;;;4.78;2.78;;;;;;;5.43;100.00;99781.78;5114529;28;20075;-67
2024/02/26 03:52:14;;;;;;;3.67;2.50;;;;;;;5.40;100.00;99788.50;5093144;28;20101;-67
2024/02/26 03:55:04;;;;;;;5.78;2.72;;;;;;;5.35;100.00;99793.88;5093600;28;20040;-68
2024/02/26 03:57:53;;;;;;;6.97;2.90;;;;;;;5.37;100.00;99789.03;5081551;28;20031;-67
2024/02/26 04:00:42;;;;;;;2.88;2.30;;;;;;;5.36;100.00;99784.69;5111623;28;20035;-67
2024/02/26 04:03:30;;;;;;;2.97;2.38;;;;;;;5.39;100.00;99797.69;5075087;28;20051;-67
2024/02/26 04:06:20;;;;;;;3.42;2.10;;;;;;;5.50;100.00;99804.78;5097518;27;20092;-67
2024/02/26 04:09:10;;;;;;;4.07;2.80;;;;;;;5.62;100.00;99814.59;5118303;27;20525;-67
2024/02/26 04:11:58;;;;;;;3.50;2.33;;;;;;;5.61;100.00;99818.38;5090897;28;20048;-67
2024/02/26 04:14:46;;;;;;;4.45;2.53;;;;;;;5.52;100.00;99813.44;5100469;28;20054;-66
2024/02/26 04:17:34;;;;;;;3.50;2.35;;;;;;;5.49;100.00;99824.78;5107207;27;20075;-67
2024/02/26 04:20:22;;;;;;;3.85;2.47;;;;;;;5.58;100.00;99822.44;5096318;28;20128;-67
2024/02/26 04:23:10;;;;;;;4.88;2.60;;;;;;;5.52;100.00;99818.84;5109969;28;20047;-66
2024/02/26 04:25:58;;;;;;;5.35;2.63;;;;;;;5.46;100.00;99824.47;5099374;28;20411;-66
2024/02/26 04:28:46;;;;;;;4.15;2.47;;;;;;;5.46;100.00;99824.47;5078084;28;20048;-67
2024/02/26 04:31:34;;;;;;;3.50;2.35;;;;;;;5.48;100.00;99823.16;5080190;28;20209;-67
2024/02/26 04:34:22;;;;;;;3.08;2.40;;;;;;;5.53;100.00;99823.19;5075101;28;20109;-67
2024/02/26 04:37:10;;;;;;;3.97;2.30;;;;;;;5.51;100.00;99833.44;5086734;28;20129;-65
2024/02/26 04:39:59;;;;;;;4.28;2.53;;;;;;;5.43;100.00;99833.91;5062603;28;20178;-67
2024/02/26 04:42:47;;;;;;;5.05;2.45;;;;;;;5.42;100.00;99835.00;5077238;28;20040;-67
2024/02/26 04:45:35;;;;;;;3.20;2.50;;;;;;;5.44;100.00;99830.16;5090556;28;20166;-66
2024/02/26 04:48:23;;;;;;;3.53;2.70;;;;;;;5.45;100.00;99833.66;5086777;28;20062;-68
2024/02/26 04:51:11;;;;;;;3.58;2.50;;;;;;;5.42;100.00;99829.59;5051288;28;20131;-67
2024/02/26 04:53:59;;;;;;;3.10;2.45;;;;;;;5.45;100.00;99829.06;5068113;28;20052;-67
2024/02/26 04:56:47;;;;;;;4.05;2.75;;;;;;;5.41;100.00;99838.78;5080034;28;20044;-66
2024/02/26 04:59:35;;;;;;;4.07;2.28;;;;;;;5.43;100.00;99847.41;5074075;28;20044;-67
2024/02/26 05:02:24;;;;;;;3.63;2.47;;;;;;;5.42;100.00;99848.50;5051546;28;20072;-66
2024/02/26 05:05:12;;;;;;;5.07;2.70;;;;;;;5.48;100.00;99854.75;5084790;28;20048;-69
2024/02/26 05:08:02;;;;;;;4.97;2.58;;;;;;;5.38;100.00;99854.69;5074562;28;20048;-67
2024/02/26 05:10:50;;;;;;;4.28;2.55;;;;;;;5.42;100.00;99848.50;5070814;28;20378;-66
2024/02/26 05:13:38;;;;;;;2.95;2.30;;;;;;;5.37;100.00;99848.47;5071685;28;20048;-67
2024/02/26 05:16:27;;;;;;;3.70;2.47;;;;;;;5.30;100.00;99848.66;5084050;28;20129;-66
2024/02/26 05:19:15;;;;;;;3.72;2.70;;;;;;;5.27;100.00;99848.38;5066804;28;20059;-67
2024/02/26 05:22:03;;;;;;;4.65;2.50;;;;;;;5.27;100.00;99851.09;5089475;28;20038;-68
2024/02/26 05:24:52;;;;;;;3.70;2.30;;;;;;;5.32;100.00;99851.13;5091822;28;20036;-68
2024/02/26 05:27:40;;;;;;;5.40;2.60;;;;;;;5.24;100.00;99854.28;5071734;28;20101;-68
2024/02/26 05:30:29;;;;;;;3.78;2.42;;;;;;;5.26;100.00;99841.34;5091007;28;20130;-68
2024/02/26 05:33:17;;;;;;;2.83;2.38;;;;;;;5.28;100.00;99856.22;5080516;28;20044;-68
2024/02/26 05:36:06;;;;;;;3.58;2.47;;;;;;;5.21;100.00;99865.59;5086416;28;20423;-67
2024/02/26 05:38:55;;;;;;;2.92;2.15;;;;;;;5.22;100.00;99867.22;5080643;28;20040;-67
2024/02/26 05:41:43;;;;;;;3.30;2.10;;;;;;;5.23;100.00;99869.69;5091241;28;20052;-67
2024/02/26 05:44:31;;;;;;;3.80;2.45;;;;;;;5.25;100.00;99864.03;5098612;28;20062;-67
2024/02/26 05:47:19;;;;;;;4.97;2.60;;;;;;;5.20;100.00;99874.78;5113685;28;20500;-67
2024/02/26 05:50:09;;;;;;;3.90;2.40;;;;;;;5.20;100.00;99875.59;5079814;28;20055;-67
2024/02/26 05:52:57;;;;;;;3.40;2.28;;;;;;;5.22;100.00;99886.97;5085078;28;20628;-67
2024/02/26 05:55:45;;;;;;;4.10;2.60;;;;;;;5.13;100.00;99881.19;5098958;28;20125;-67
2024/02/26 05:58:33;;;;;;;4.75;2.72;;;;;;;5.15;100.00;99888.22;5115007;28;20113;-67
2024/02/26 06:01:21;;;;;;;4.07;3.05;;;;;;;5.11;100.00;99888.72;5106359;28;20109;-67
2024/02/26 06:04:10;;;;;;;5.60;2.85;;;;;;;5.18;100.00;99885.84;5097702;28;20116;-68
2024/02/26 06:06:58;;;;;;;3.67;2.80;;;;;;;5.12;100.00;99889.53;5112703;28;20395;-66
2024/02/26 06:09:46;;;;;;;6.82;3.28;;;;;;;5.08;100.00;99891.13;5097726;28;20576;-68
2024/02/26 06:12:37;;;;;;;4.85;3.17;;;;;;;5.10;100.00;99892.50;5095579;28;20051;-67
2024/02/26 06:15:25;;;;;;;4.22;2.95;;;;;;;5.10;100.00;99899.81;5073504;28;20063;-65
2024/02/26 06:18:13;;;;;;;5.30;2.67;;;;;;;5.04;100.00;99903.50;5102768;28;20070;-63
2024/02/26 06:21:01;;;;;;;3.95;2.88;;;;;;;5.07;100.00;99903.78;5100606;28;20040;-65
2024/02/26 06:23:50;;;;;;;5.15;2.92;;;;;;;5.06;100.00;99910.28;5105108;28;20511;-66
2024/02/26 06:26:38;;;;;;;3.60;2.88;;;;;;;4.97;100.00;99911.78;5111711;28;20043;-64
2024/02/26 06:29:26;;;;;;;3.38;2.60;;;;;;;4.94;100.00;99915.00;5090491;28;20071;-63
2024/02/26 06:32:15;;;;;;;4.00;2.80;;;;;;;4.88;100.00;99919.56;5107735;28;20050;-67
2024/02/26 06:35:08;;;;;;;6.35;3.08;;;;;;;4.91;100.00;99921.72;5114397;28;20040;-61
2024/02/26 06:37:57;;;;;;;5.05;3.25;;;;;;;4.85;100.00;99925.44;5106337;28;20062;-67
2024/02/26 06:40:45;;;;;;;5.68;3.25;;;;;;;4.80;100.00;99930.78;5079253;28;20109;-68
2024/02/26 06:43:33;;;;;;;5.72;3.40;;;;;;;4.79;100.00;99933.75;5115227;28;20050;-67
2024/02/26 06:46:25;;;;;;;5.22;3.03;;;;;;;4.80;100.00;99941.56;5111740;28;20019;-66
2024/02/26 06:49:13;;;;;;;6.28;3.35;;;;;;;4.90;100.00;99938.16;5105327;28;20055;-67
2024/02/26 06:52:02;;;;;;;5.47;3.10;;;;;;;4.87;100.00;99935.97;5098481;28;20113;-68
2024/02/26 06:54:52;;;;;;;4.82;3.38;;;;;;;4.87;100.00;99942.19;5092277;28;20047;-68
2024/02/26 06:57:40;;;;;;;5.72;3.20;;;;;;;4.91;100.00;99953.31;5108561;28;20067;-67
2024/02/26 07:00:28;;;;;;;4.53;2.60;;;;;;;4.94;100.00;99958.19;5096848;28;20050;-68
2024/02/26 07:03:35;;;;;;;3.67;3.03;;;;;;;4.96;100.00;99956.06;5084044;28;20043;-66
2024/02/26 07:06:32;;;;;;;5.03;3.08;;;;;;;4.91;100.00;99956.81;4748219;28;9999831;-66
2024/02/26 07:09:56;;;;;;;4.60;3.13;;;;;;;4.87;100.00;99971.06;5079158;28;20130;-67
2024/02/26 07:12:46;;;;;;;3.90;2.90;;;;;;;4.83;100.00;99964.53;5102246;28;20078;-68
2024/02/26 07:15:34;;;;;;;7.13;3.40;;;;;;;4.84;100.00;99976.97;5074060;28;20043;-66
2024/02/26 07:18:22;;;;;;;4.53;3.10;;;;;;;4.82;100.00;99966.44;5083468;28;20108;-66
2024/02/26 07:21:12;;;;;;;6.28;3.45;;;;;;;4.83;100.00;99969.94;5104205;28;20040;-66
2024/02/26 07:24:00;;;;;;;7.13;3.30;;;;;;;4.96;100.00;99976.84;5102430;27;20134;-67
2024/02/26 07:26:48;;;;;;;3.80;2.78;;;;;;;4.87;100.00;99987.25;5108448;28;20411;-68
2024/02/26 07:29:36;;;;;;;3.78;2.90;;;;;;;4.80;100.00;99978.53;5108814;28;20054;-66
2024/02/26 07:32:24;;;;;;;3.42;2.67;;;;;;;4.79;100.00;99993.09;5098653;28;20119;-67
2024/02/26 07:35:12;;;;;;;4.78;3.03;;;;;;;4.88;100.00;99997.81;5056337;28;20075;-66
2024/02/26 07:38:00;;;;;;;3.17;2.33;;;;;;;4.97;100.00;99990.09;5097354;28;20050;-67
2024/02/26 07:40:48;;;;;;;8.38;3.28;;;;;;;5.05;100.00;99989.66;5084090;28;20524;-67
2024/02/26 07:43:49;;;;;;;4.68;2.97;;;;;;;5.21;100.00;99995.22;5087235;28;20408;-66
2024/02/26 07:46:37;;;;;;;4.80;2.70;;;;;;;5.02;100.00;99998.25;5068102;28;20052;-66
2024/02/26 07:49:25;;;;;;;5.00;2.85;;;;;;;4.92;100.00;100003.53;5067509;28;20178;-66
2024/02/26 07:52:13;;;;;;;4.22;3.20;;;;;;;4.93;100.00;100005.16;5080406;28;20071;-66
2024/02/26 07:55:01;;;;;;;3.42;2.55;;;;;;;4.87;100.00;100016.97;5060728;28;20040;-66
2024/02/26 07:57:54;;;;;;;5.18;3.40;;;;;;;4.90;100.00;100016.44;5046659;28;20049;-69
2024/02/26 08:00:42;;;;;;;4.63;3.22;;;;;;;4.88;100.00;100021.28;5069193;28;20131;-67
2024/02/26 08:03:30;;;;;;;4.82;2.97;;;;;;;4.81;100.00;100029.56;5082911;28;20048;-67
2024/02/26 08:06:18;;;;;;;5.63;3.00;;;;;;;4.79;100.00;100030.91;4734554;28;10000079;-68
2024/02/26 08:09:06;;;;;;;4.28;3.15;;;;;;;4.84;100.00;100028.25;5067401;28;20059;-66
2024/02/26 08:11:55;;;;;;;6.75;3.40;;;;;;;4.86;100.00;100035.03;5087977;28;20506;-67
2024/02/26 08:14:43;;;;;;;12.70;4.78;;;;;;;5.60;100.00;100035.63;5089570;28;20048;-67
2024/02/26 08:17:32;;;;;;;5.78;3.60;;;;;;;5.44;100.00;100037.34;5065432;28;20041;-66
2024/02/26 08:20:21;;;;;;;5.13;3.30;;;;;;;5.03;100.00;100037.69;5074713;28;20123;-67
2024/02/26 08:23:08;;;;;;;5.03;3.30;;;;;;;4.94;100.00;100044.59;5088362;28;20510;-66
2024/02/26 08:25:56;;;;;;;4.88;3.10;;;;;;;4.86;100.00;100056.63;5074671;28;20562;-66
2024/02/26 08:28:44;;;;;;;6.32;3.70;;;;;;;4.79;100.00;100053.28;5043306;28;20078;-69
2024/02/26 08:31:33;;;;;;;5.10;3.50;;;;;;;4.68;100.00;100052.31;5043487;28;20058;-67
2024/02/26 08:34:21;;;;;;;6.45;3.70;;;;;;;4.68;100.00;100057.72;5085129;28;20501;-66
2024/02/26 08:37:10;;;;;;;7.95;3.70;;;;;;;4.74;100.00;100065.88;5058302;28;20140;-67
2024/02/26 08:39:58;;;;;;;5.80;3.70;;;;;;;4.78;100.00;100072.41;5112294;28;20044;-66
2024/02/26 08:42:52;;;;;;;6.97;3.78;;;;;;;4.78;100.00;100070.53;5105153;28;20523;-67
2024/02/26 08:45:40;;;;;;;9.20;3.83;;;;;;;4.87;100.00;100079.03;5091994;28;20044;-66
2024/02/26 08:48:28;;;;;;;21.70;7.65;;;;;;;4.89;100.00;100080.41;5089626;28;20044;-66
2024/02/26 08:51:16;;;;;;;14.15;5.65;;;;;;;4.83;100.00;100085.97;5076483;28;20137;-67
2024/02/26 08:54:04;;;;;;;16.20;4.88;;;;;;;4.79;100.00;100093.78;5066754;28;20055;-68
2024/02/26 08:56:52;;;;;;;6.97;4.05;;;;;;;4.83;100.00;100094.88;5069908;28;20043;-68
2024/02/26 08:59:40;;;;;;;8.77;4.43;;;;;;;4.88;100.00;100094.16;5091198;28;20461;-67
2024/02/26 09:02:28;;;;;;;13.52;5.57;;;;;;;4.89;100.00;100095.81;5095780;28;20048;-67
2024/02/26 09:05:16;;;;;;;17.30;6.55;;;;;;;4.86;100.00;100099.00;5095837;28;20522;-66
2024/02/26 09:08:05;;;;;;;8.75;4.85;;;;;;;4.88;100.00;100092.28;5074111;28;20101;-68
2024/02/26 09:10:53;;;;;;;10.68;4.88;;;;;;;4.91;100.00;100109.88;5060232;28;20076;-67
2024/02/26 09:13:42;;;;;;;9.85;5.40;;;;;;;4.85;100.00;100114.34;5082941;28;20496;-67
2024/02/26 09:16:30;;;;;;;9.15;5.07;;;;;;;4.91;100.00;100109.88;5080342;28;20047;-67
2024/02/26 09:19:29;;;;;;;6.68;4.59;;;;;;;4.89;100.00;100117.41;5070274;28;10001023;-68
2024/02/26 09:22:17;;;;;;;7.20;4.32;;;;;;;4.89;100.00;100117.41;5057773;28;20626;-67
2024/02/26 09:25:06;;;;;;;12.77;6.15;;;;;;;4.89;100.00;100134.41;5084109;28;20051;-67
2024/02/26 09:27:54;;;;;;;8.35;5.13;;;;;;;4.87;100.00;100133.00;5091877;28;20059;-67
2024/02/26 09:30:42;;;;;;;10.60;5.45;;;;;;;4.85;100.00;100140.53;5089150;28;20067;-65
2024/02/26 09:33:30;;;;;;;10.63;5.50;;;;;;;4.87;100.00;100138.41;5093690;28;20043;-66
2024/02/26 09:36:19;;;;;;;11.52;5.47;;;;;;;4.96;100.00;100139.63;5112999;28;20427;-67
2024/02/26 09:39:11;;;;;;;10.73;6.00;;;;;;;5.01;100.00;100152.41;5101241;28;20139;-67
2024/02/26 09:42:02;;;;;;;14.32;5.75;;;;;;;4.94;100.00;100149.84;5104232;28;20039;-67
2024/02/26 09:44:55;;;;;;;10.00;5.63;;;;;;;4.93;100.00;100155.50;5098245;28;20086;-67
2024/02/26 09:47:43;;;;;;;13.10;6.45;;;;;;;4.90;100.00;100165.72;5106209;28;20035;-67
2024/02/26 09:50:31;;;;;;;8.93;5.65;;;;;;;4.89;100.00;100168.69;5109344;28;20043;-67
2024/02/26 09:53:22;;;;;;;10.27;6.00;;;;;;;4.89;100.00;100166.78;5098356;28;20047;-67
2024/02/26 09:56:12;;;;;;;21.27;8.82;;;;;;;4.88;100.00;100164.31;5092076;28;20505;-67
2024/02/26 09:59:01;;;;;;;14.25;6.22;;;;;;;4.89;100.00;100160.59;5084081;28;20189;-67
2024/02/26 10:01:49;;;;;;;11.32;6.40;;;;;;;4.95;100.00;100181.19;5083962;27;20069;-67
2024/02/26 10:04:42;;;;;;;12.73;6.55;;;;;;;4.92;100.00;100189.78;5097424;28;20078;-66
2024/02/26 10:07:36;;;;;;;17.33;7.60;;;;;;;4.89;100.00;100192.97;5098312;28;20256;-66
2024/02/26 10:10:24;;;;;;;10.90;6.18;;;;;;;4.91;100.00;100205.16;5110556;28;20059;-66
2024/02/26 10:13:12;;;;;;;13.20;7.40;;;;;;;4.91;100.00;100202.47;5083318;28;20625;-67
2024/02/26 10:16:03;;;;;;;11.88;6.82;;;;;;;4.93;100.00;100204.09;5095668;28;20598;-67
2024/02/26 10:18:53;;;;;;;12.35;7.20;;;;;;;4.91;100.00;100213.25;5083525;28;20059;-67
2024/02/26 10:21:47;;;;;;;10.93;7.05;;;;;;;4.94;100.00;100217.34;5077353;28;20055;-66
2024/02/26 10:24:34;;;;;;;9.70;6.72;;;;;;;4.92;100.00;100219.47;5099992;28;20126;-68
2024/02/26 10:27:23;;;;;;;11.07;7.03;;;;;;;4.92;100.00;100224.88;5110972;27;20139;-66
2024/02/26 10:30:22;;;;;;;12.02;7.70;;;;;;;4.94;100.00;100236.25;5115703;27;20059;-67
2024/02/26 10:33:11;;;;;;;12.50;7.40;;;;;;;4.93;100.00;100236.47;5114278;27;20073;-66
2024/02/26 10:35:59;;;;;;;13.02;7.97;;;;;;;4.85;100.00;100235.81;5127129;28;20048;-66
2024/02/26 10:38:47;;;;;;;12.52;7.43;;;;;;;4.81;100.00;100250.88;5091502;28;20072;-68
2024/02/26 10:41:35;;;;;;;11.38;8.02;;;;;;;4.76;100.00;100250.78;5064715;28;20153;-67
2024/02/26 10:44:23;;;;;;;10.60;7.75;;;;;;;4.76;100.00;100253.47;5093611;28;20056;-65
2024/02/26 10:47:11;;;;;;;12.52;8.00;;;;;;;4.77;100.00;100252.44;5112621;28;20054;-63
2024/02/26 10:50:01;;;;;;;11.82;8.80;;;;;;;4.72;100.00;100256.94;5102515;28;20079;-67
2024/02/26 10:52:49;;;;;;;13.25;9.02;;;;;;;4.73;100.00;100270.16;5095761;28;20500;-64
2024/02/26 10:55:38;;;;;;;12.65;9.25;;;;;;;4.78;100.00;100270.25;5088753;28;20043;-67
2024/02/26 10:58:26;;;;;;;12.70;9.68;;;;;;;4.83;100.00;100278.44;5095688;28;20126;-67
2024/02/26 11:01:14;;;;;;;15.50;9.65;;;;;;;4.80;100.00;100275.41;5082574;28;20495;-69
2024/02/26 11:04:02;;;;;;;13.32;10.10;;;;;;;4.77;100.00;100281.31;5091808;27;21060;-67
2024/02/26 11:06:51;;;;;;;14.57;10.45;;;;;;;4.73;100.00;100288.22;5055927;28;20047;-67
2024/02/26 11:09:44;;;;;;;14.57;10.35;;;;;;;4.74;100.00;100288.00;5073831;28;20047;-67
2024/02/26 11:12:35;;;;;;;15.98;10.80;;;;;;;4.75;100.00;100294.22;5049279;28;20129;-67
2024/02/26 11:15:24;;;;;;;14.63;10.77;;;;;;;4.76;100.00;100287.75;5066660;28;20051;-67
2024/02/26 11:18:13;;;;;;;15.25;10.25;;;;;;;4.77;100.00;100290.22;5077197;28;20047;-67
2024/02/26 11:21:02;;;;;;;15.70;9.80;;;;;;;4.83;100.00;100296.50;5059527;28;20047;-67
2024/02/26 11:23:50;;;;;;;14.27;10.55;;;;;;;4.90;100.00;100289.88;5088935;28;20048;-67
2024/02/26 11:26:45;;;;;;;14.68;10.27;;;;;;;4.88;100.00;100299.28;5075281;28;20052;-66
2024/02/26 11:29:39;;;;;;;15.00;10.50;;;;;;;4.83;100.00;100302.72;5056874;28;20063;-67
2024/02/26 11:32:30;;;;;;;14.93;11.10;;;;;;;4.83;100.00;100291.91;5096619;28;20523;-67
2024/02/26 11:35:19;;;;;;;14.93;11.02;;;;;;;4.78;100.00;100304.50;5095089;28;20050;-66
2024/02/26 11:38:07;;;;;;;17.27;10.55;;;;;;;4.77;100.00;100302.91;5079793;28;20052;-66
2024/02/26 11:40:55;;;;;;;16.55;12.00;;;;;;;4.77;100.00;100305.59;5108595;28;20071;-66
2024/02/26 11:43:53;;;;;;;16.13;10.40;;;;;;;4.77;100.00;100308.28;5062948;28;20047;-67
2024/02/26 11:46:43;;;;;;;15.35;11.15;;;;;;;4.79;100.00;100300.78;5075060;28;20052;-66
2024/02/26 11:49:32;;;;;;;14.45;10.27;;;;;;;4.79;100.00;100306.16;5082474;28;20401;-66
2024/02/26 11:52:21;;;;;;;14.93;10.93;;;;;;;4.78;100.00;100315.31;5089777;28;20040;-67
2024/02/26 11:55:09;;;;;;;13.38;9.77;;;;;;;4.78;100.00;100310.72;5095124;27;20585;-67
2024/02/26 11:57:57;;;;;;;14.60;10.80;;;;;;;4.81;100.00;100318.38;5122190;27;20090;-67
2024/02/26 12:00:45;;;;;;;15.32;9.90;;;;;;;4.81;100.00;100318.38;5101694;28;20127;-67
2024/02/26 12:03:33;;;;;;;15.35;10.93;;;;;;;4.83;100.00;100324.31;5093737;28;20511;-67
2024/02/26 12:06:21;;;;;;;14.52;10.20;;;;;;;4.83;100.00;100334.28;5094591;28;20122;-67
2024/02/26 12:09:09;;;;;;;13.77;10.05;;;;;;;4.84;100.00;100330.56;5090809;28;20070;-68
2024/02/26 12:11:58;;;;;;;13.50;10.32;;;;;;;4.82;100.00;100338.06;5071233;28;20189;-66
2024/02/26 12:14:57;;;;;;;13.57;10.65;;;;;;;4.87;100.00;100335.47;5061646;28;20048;-67
2024/02/26 12:17:49;;;;;;;15.18;9.73;;;;;;;4.85;100.00;100337.56;5083931;28;20047;-66
2024/02/26 12:20:38;;;;;;;15.43;11.10;;;;;;;4.79;100.00;100358.25;5079096;27;20073;-66
2024/02/26 12:23:27;;;;;;;15.25;10.48;;;;;;;4.81;100.00;100358.84;5092590;28;20051;-66
2024/02/26 12:26:16;;;;;;;13.85;10.60;;;;;;;4.77;100.00;100367.66;5108408;28;20051;-66
2024/02/26 12:29:04;;;;;;;14.05;10.07;;;;;;;4.79;100.00;100363.66;5108501;28;20073;-66
2024/02/26 12:31:52;;;;;;;12.75;9.88;;;;;;;4.83;100.00;100374.78;5087287;28;20142;-66
2024/02/26 12:34:40;;;;;;;16.52;10.13;;;;;;;4.83;100.00;100366.69;5093770;28;20100;-67
2024/02/26 12:37:29;;;;;;;15.20;9.95;;;;;;;4.83;100.00;100382.88;5094213;28;20209;-67
2024/02/26 12:40:17;;;;;;;14.60;9.50;;;;;;;4.83;100.00;100383.69;5097216;28;20115;-66
2024/02/26 12:43:06;;;;;;;13.77;9.85;;;;;;;4.80;100.00;100388.75;5080717;28;20054;-67
2024/02/26 12:45:54;;;;;;;15.05;10.32;;;;;;;4.85;100.00;100396.97;5091621;28;20050;-67
2024/02/26 12:48:44;;;;;;;12.55;9.63;;;;;;;4.85;100.00;100402.34;5088084;28;20059;-66
2024/02/26 12:51:34;;;;;;;12.68;9.15;;;;;;;4.86;100.00;100398.63;5110085;28;20130;-67
2024/02/26 12:54:22;;;;;;;13.10;9.68;;;;;;;4.83;100.00;100401.78;5079219;28;20046;-66
2024/02/26 12:57:10;;;;;;;13.32;8.95;;;;;;;4.87;100.00;100400.25;5092496;28;20654;-67
2024/02/26 12:59:59;;;;;;;12.50;8.48;;;;;;;4.87;100.00;100406.44;5094496;28;20287;-67
2024/02/26 13:02:47;;;;;;;13.90;8.80;;;;;;;4.87;100.00;100405.63;5095111;28;20047;-67
2024/02/26 13:05:36;;;;;;;12.40;8.27;;;;;;;4.87;100.00;100419.94;5094396;28;20055;-66
2024/02/26 13:08:25;;;;;;;10.80;7.75;;;;;;;4.84;100.00;100412.34;5079424;28;20039;-67